sensor_id;sensor_type;location;lat;lon;timestamp;P1;durP1;ratioP1;P2;durP2;ratioP2
35364;SDS011;21464;48.112;11.530;2023-06-10T00:02:04;7.78;;;7.07;;
35364;SDS011;21464;48.112;11.530;2023-06-10T00:04:31;7.22;;;6.72;;
35364;SDS011;21464;48.112;11.530;2023-06-10T00:06:58;7.13;;;6.43;;
35364;SDS011;21464;48.112;11.530;2023-06-10T00:09:25;7.20;;;6.68;;
35364;SDS011;21464;48.112;11.530;2023-06-10T00:11:52;7.13;;;6.32;;
35364;SDS011;21464;48.112;11.530;2023-06-10T00:14:18;6.95;;;6.43;;
35364;SDS011;21464;48.112;11.530;2023-06-10T00:16:45;6.45;;;5.95;;
35364;SDS011;21464;48.112;11.530;2023-06-10T00:19:11;6.35;;;5.90;;
35364;SDS011;21464;48.112;11.530;2023-06-10T00:21:39;6.57;;;6.07;;
35364;SDS011;21464;48.112;11.530;2023-06-10T00:24:06;7.10;;;6.40;;
35364;SDS011;21464;48.112;11.530;2023-06-10T00:26:38;6.65;;;6.03;;
35364;SDS011;21464;48.112;11.530;2023-06-10T00:29:05;6.85;;;6.25;;
35364;SDS011;21464;48.112;11.530;2023-06-10T00:31:37;6.35;;;5.80;;
35364;SDS011;21464;48.112;11.530;2023-06-10T00:34:06;6.43;;;5.90;;
35364;SDS011;21464;48.112;11.530;2023-06-10T00:36:33;6.50;;;6.00;;
35364;SDS011;21464;48.112;11.530;2023-06-10T00:38:59;6.20;;;5.70;;
35364;SDS011;21464;48.112;11.530;2023-06-10T00:41:25;6.47;;;5.95;;
35364;SDS011;21464;48.112;11.530;2023-06-10T00:43:58;6.72;;;6.13;;
35364;SDS011;21464;48.112;11.530;2023-06-10T00:46:26;5.97;;;5.43;;
35364;SDS011;21464;48.112;11.530;2023-06-10T00:48:55;6.50;;;5.95;;
35364;SDS011;21464;48.112;11.530;2023-06-10T00:51:22;6.53;;;5.82;;
35364;SDS011;21464;48.112;11.530;2023-06-10T00:53:48;6.25;;;5.85;;
35364;SDS011;21464;48.112;11.530;2023-06-10T00:56:15;5.82;;;5.43;;
35364;SDS011;21464;48.112;11.530;2023-06-10T00:58:42;6.60;;;6.10;;
35364;SDS011;21464;48.112;11.530;2023-06-10T01:01:08;6.40;;;5.80;;
35364;SDS011;21464;48.112;11.530;2023-06-10T01:03:38;6.10;;;5.60;;
35364;SDS011;21464;48.112;11.530;2023-06-10T01:12:27;6.57;;;6.07;;
35364;SDS011;21464;48.112;11.530;2023-06-10T01:15:15;6.38;;;5.78;;
35364;SDS011;21464;48.112;11.530;2023-06-10T01:17:58;6.47;;;5.97;;
35364;SDS011;21464;48.112;11.530;2023-06-10T01:20:26;6.47;;;5.97;;
35364;SDS011;21464;48.112;11.530;2023-06-10T01:22:56;6.78;;;6.25;;
35364;SDS011;21464;48.112;11.530;2023-06-10T01:25:27;6.70;;;6.13;;
35364;SDS011;21464;48.112;11.530;2023-06-10T01:27:57;6.82;;;6.25;;
35364;SDS011;21464;48.112;11.530;2023-06-10T01:30:27;6.72;;;6.22;;
35364;SDS011;21464;48.112;11.530;2023-06-10T01:32:59;7.07;;;6.28;;
35364;SDS011;21464;48.112;11.530;2023-06-10T01:35:25;6.95;;;6.35;;
35364;SDS011;21464;48.112;11.530;2023-06-10T01:37:53;6.53;;;6.00;;
35364;SDS011;21464;48.112;11.530;2023-06-10T01:40:21;7.53;;;6.82;;
35364;SDS011;21464;48.112;11.530;2023-06-10T01:42:50;8.38;;;7.55;;
35364;SDS011;21464;48.112;11.530;2023-06-10T01:45:18;8.07;;;7.28;;
35364;SDS011;21464;48.112;11.530;2023-06-10T01:47:44;12.32;;;10.73;;
35364;SDS011;21464;48.112;11.530;2023-06-10T01:50:10;8.05;;;7.45;;
35364;SDS011;21464;48.112;11.530;2023-06-10T01:52:37;6.85;;;6.35;;
35364;SDS011;21464;48.112;11.530;2023-06-10T01:55:03;7.07;;;6.38;;
35364;SDS011;21464;48.112;11.530;2023-06-10T01:57:30;7.57;;;6.90;;
35364;SDS011;21464;48.112;11.530;2023-06-10T01:59:56;7.45;;;6.85;;
35364;SDS011;21464;48.112;11.530;2023-06-10T02:02:23;7.05;;;6.35;;
35364;SDS011;21464;48.112;11.530;2023-06-10T02:04:50;7.85;;;7.18;;
35364;SDS011;21464;48.112;11.530;2023-06-10T02:07:19;7.65;;;7.05;;
35364;SDS011;21464;48.112;11.530;2023-06-10T02:09:45;8.20;;;7.45;;
35364;SDS011;21464;48.112;11.530;2023-06-10T02:12:11;8.23;;;7.53;;
35364;SDS011;21464;48.112;11.530;2023-06-10T02:14:37;8.77;;;7.97;;
35364;SDS011;21464;48.112;11.530;2023-06-10T02:17:04;7.80;;;7.10;;
35364;SDS011;21464;48.112;11.530;2023-06-10T02:19:30;9.10;;;8.20;;
35364;SDS011;21464;48.112;11.530;2023-06-10T02:21:56;11.23;;;10.13;;
35364;SDS011;21464;48.112;11.530;2023-06-10T02:24:22;9.40;;;8.52;;
35364;SDS011;21464;48.112;11.530;2023-06-10T02:26:49;16.75;;;15.00;;
35364;SDS011;21464;48.112;11.530;2023-06-10T02:29:17;12.10;;;10.95;;
35364;SDS011;21464;48.112;11.530;2023-06-10T02:31:44;14.23;;;12.55;;
35364;SDS011;21464;48.112;11.530;2023-06-10T02:34:10;9.55;;;8.75;;
35364;SDS011;21464;48.112;11.530;2023-06-10T02:36:36;12.13;;;10.93;;
35364;SDS011;21464;48.112;11.530;2023-06-10T02:39:03;9.48;;;8.68;;
35364;SDS011;21464;48.112;11.530;2023-06-10T02:41:30;9.60;;;8.70;;
35364;SDS011;21464;48.112;11.530;2023-06-10T02:43:58;9.27;;;8.48;;
35364;SDS011;21464;48.112;11.530;2023-06-10T02:46:25;9.50;;;8.70;;
35364;SDS011;21464;48.112;11.530;2023-06-10T02:48:52;10.68;;;9.65;;
35364;SDS011;21464;48.112;11.530;2023-06-10T02:51:21;10.18;;;9.27;;
35364;SDS011;21464;48.112;11.530;2023-06-10T02:53:50;10.15;;;9.32;;
35364;SDS011;21464;48.112;11.530;2023-06-10T02:56:16;9.45;;;8.65;;
35364;SDS011;21464;48.112;11.530;2023-06-10T02:58:43;9.45;;;8.65;;
35364;SDS011;21464;48.112;11.530;2023-06-10T03:01:12;11.45;;;10.35;;
35364;SDS011;21464;48.112;11.530;2023-06-10T03:03:47;8.82;;;8.02;;
35364;SDS011;21464;48.112;11.530;2023-06-10T03:06:16;9.55;;;8.65;;
35364;SDS011;21464;48.112;11.530;2023-06-10T03:08:42;9.93;;;9.10;;
35364;SDS011;21464;48.112;11.530;2023-06-10T03:11:13;10.52;;;9.63;;
35364;SDS011;21464;48.112;11.530;2023-06-10T03:13:40;9.93;;;9.02;;
35364;SDS011;21464;48.112;11.530;2023-06-10T03:16:09;9.77;;;8.98;;
35364;SDS011;21464;48.112;11.530;2023-06-10T03:18:37;9.85;;;9.05;;
35364;SDS011;21464;48.112;11.530;2023-06-10T03:21:04;9.63;;;8.73;;
35364;SDS011;21464;48.112;11.530;2023-06-10T03:23:30;9.65;;;8.88;;
35364;SDS011;21464;48.112;11.530;2023-06-10T03:25:58;10.35;;;9.43;;
35364;SDS011;21464;48.112;11.530;2023-06-10T03:28:25;10.10;;;9.10;;
35364;SDS011;21464;48.112;11.530;2023-06-10T03:30:51;10.13;;;9.10;;
35364;SDS011;21464;48.112;11.530;2023-06-10T03:33:18;10.30;;;9.23;;
35364;SDS011;21464;48.112;11.530;2023-06-10T03:35:45;9.48;;;8.57;;
35364;SDS011;21464;48.112;11.530;2023-06-10T03:38:13;9.88;;;8.98;;
35364;SDS011;21464;48.112;11.530;2023-06-10T03:40:40;10.32;;;9.32;;
35364;SDS011;21464;48.112;11.530;2023-06-10T03:43:07;10.18;;;9.05;;
35364;SDS011;21464;48.112;11.530;2023-06-10T03:45:33;10.45;;;9.13;;
35364;SDS011;21464;48.112;11.530;2023-06-10T03:48:00;9.60;;;8.80;;
35364;SDS011;21464;48.112;11.530;2023-06-10T03:50:34;9.30;;;8.50;;
35364;SDS011;21464;48.112;11.530;2023-06-10T03:53:02;9.80;;;9.00;;
35364;SDS011;21464;48.112;11.530;2023-06-10T03:55:28;9.05;;;8.35;;
35364;SDS011;21464;48.112;11.530;2023-06-10T03:57:57;10.35;;;9.45;;
35364;SDS011;21464;48.112;11.530;2023-06-10T04:00:24;10.05;;;9.15;;
35364;SDS011;21464;48.112;11.530;2023-06-10T04:02:50;10.23;;;9.32;;
35364;SDS011;21464;48.112;11.530;2023-06-10T04:05:27;11.38;;;10.38;;
35364;SDS011;21464;48.112;11.530;2023-06-10T04:07:54;10.98;;;10.07;;
35364;SDS011;21464;48.112;11.530;2023-06-10T04:10:21;11.10;;;10.20;;
35364;SDS011;21464;48.112;11.530;2023-06-10T04:12:47;10.32;;;9.43;;
35364;SDS011;21464;48.112;11.530;2023-06-10T04:15:14;10.65;;;9.75;;
35364;SDS011;21464;48.112;11.530;2023-06-10T04:17:41;11.23;;;10.15;;
35364;SDS011;21464;48.112;11.530;2023-06-10T04:20:09;11.93;;;10.73;;
35364;SDS011;21464;48.112;11.530;2023-06-10T04:22:38;12.07;;;10.93;;
35364;SDS011;21464;48.112;11.530;2023-06-10T04:25:06;11.82;;;10.63;;
35364;SDS011;21464;48.112;11.530;2023-06-10T04:27:34;11.30;;;10.30;;
35364;SDS011;21464;48.112;11.530;2023-06-10T04:30:00;11.82;;;10.82;;
35364;SDS011;21464;48.112;11.530;2023-06-10T04:32:28;11.25;;;10.30;;
35364;SDS011;21464;48.112;11.530;2023-06-10T04:34:54;11.05;;;10.05;;
35364;SDS011;21464;48.112;11.530;2023-06-10T04:37:21;11.30;;;10.27;;
35364;SDS011;21464;48.112;11.530;2023-06-10T04:39:47;10.60;;;9.70;;
35364;SDS011;21464;48.112;11.530;2023-06-10T04:42:14;10.98;;;10.02;;
35364;SDS011;21464;48.112;11.530;2023-06-10T04:44:41;11.25;;;10.15;;
35364;SDS011;21464;48.112;11.530;2023-06-10T04:47:08;11.68;;;10.68;;
35364;SDS011;21464;48.112;11.530;2023-06-10T04:49:35;12.20;;;11.00;;
35364;SDS011;21464;48.112;11.530;2023-06-10T04:52:02;11.70;;;10.60;;
35364;SDS011;21464;48.112;11.530;2023-06-10T04:54:33;12.20;;;11.00;;
35364;SDS011;21464;48.112;11.530;2023-06-10T04:56:59;10.85;;;9.93;;
35364;SDS011;21464;48.112;11.530;2023-06-10T04:59:27;11.65;;;10.60;;
35364;SDS011;21464;48.112;11.530;2023-06-10T05:01:53;11.93;;;10.82;;
35364;SDS011;21464;48.112;11.530;2023-06-10T05:04:20;11.93;;;10.93;;
35364;SDS011;21464;48.112;11.530;2023-06-10T05:06:47;11.15;;;10.15;;
35364;SDS011;21464;48.112;11.530;2023-06-10T05:09:16;12.18;;;10.93;;
35364;SDS011;21464;48.112;11.530;2023-06-10T05:11:43;12.07;;;10.98;;
35364;SDS011;21464;48.112;11.530;2023-06-10T05:14:11;11.75;;;10.80;;
35364;SDS011;21464;48.112;11.530;2023-06-10T05:16:38;11.50;;;10.50;;
35364;SDS011;21464;48.112;11.530;2023-06-10T05:19:04;11.90;;;10.85;;
35364;SDS011;21464;48.112;11.530;2023-06-10T05:21:31;12.00;;;10.90;;
35364;SDS011;21464;48.112;11.530;2023-06-10T05:23:57;11.85;;;10.82;;
35364;SDS011;21464;48.112;11.530;2023-06-10T05:26:23;12.63;;;11.43;;
35364;SDS011;21464;48.112;11.530;2023-06-10T05:28:51;12.52;;;11.32;;
35364;SDS011;21464;48.112;11.530;2023-06-10T05:31:17;12.73;;;11.52;;
35364;SDS011;21464;48.112;11.530;2023-06-10T05:33:43;13.00;;;11.82;;
35364;SDS011;21464;48.112;11.530;2023-06-10T05:36:09;13.43;;;11.57;;
35364;SDS011;21464;48.112;11.530;2023-06-10T05:38:36;13.07;;;11.88;;
35364;SDS011;21464;48.112;11.530;2023-06-10T05:41:02;13.52;;;12.30;;
35364;SDS011;21464;48.112;11.530;2023-06-10T05:43:30;16.77;;;14.98;;
35364;SDS011;21464;48.112;11.530;2023-06-10T05:45:56;14.63;;;13.23;;
35364;SDS011;21464;48.112;11.530;2023-06-10T05:48:22;17.00;;;15.35;;
35364;SDS011;21464;48.112;11.530;2023-06-10T05:50:49;16.60;;;14.93;;
35364;SDS011;21464;48.112;11.530;2023-06-10T05:53:15;13.75;;;12.55;;
35364;SDS011;21464;48.112;11.530;2023-06-10T05:55:42;13.15;;;11.95;;
35364;SDS011;21464;48.112;11.530;2023-06-10T05:58:10;14.02;;;11.65;;
35364;SDS011;21464;48.112;11.530;2023-06-10T06:00:39;12.98;;;11.77;;
35364;SDS011;21464;48.112;11.530;2023-06-10T06:03:09;12.80;;;11.60;;
35364;SDS011;21464;48.112;11.530;2023-06-10T06:05:36;13.88;;;12.48;;
35364;SDS011;21464;48.112;11.530;2023-06-10T06:08:04;12.52;;;11.27;;
35364;SDS011;21464;48.112;11.530;2023-06-10T06:10:31;13.15;;;11.85;;
35364;SDS011;21464;48.112;11.530;2023-06-10T06:12:58;13.50;;;12.20;;
35364;SDS011;21464;48.112;11.530;2023-06-10T06:15:25;13.05;;;11.77;;
35364;SDS011;21464;48.112;11.530;2023-06-10T06:17:52;13.13;;;11.93;;
35364;SDS011;21464;48.112;11.530;2023-06-10T06:20:20;12.75;;;11.65;;
35364;SDS011;21464;48.112;11.530;2023-06-10T06:22:49;13.50;;;12.07;;
35364;SDS011;21464;48.112;11.530;2023-06-10T06:25:15;12.23;;;11.13;;
35364;SDS011;21464;48.112;11.530;2023-06-10T06:27:42;12.40;;;11.40;;
35364;SDS011;21464;48.112;11.530;2023-06-10T06:30:09;12.27;;;11.02;;
35364;SDS011;21464;48.112;11.530;2023-06-10T06:32:39;13.23;;;12.02;;
35364;SDS011;21464;48.112;11.530;2023-06-10T06:35:06;12.40;;;11.30;;
35364;SDS011;21464;48.112;11.530;2023-06-10T06:37:33;12.70;;;11.40;;
35364;SDS011;21464;48.112;11.530;2023-06-10T06:40:17;12.50;;;11.40;;
35364;SDS011;21464;48.112;11.530;2023-06-10T06:42:44;11.75;;;10.63;;
35364;SDS011;21464;48.112;11.530;2023-06-10T06:45:22;11.38;;;10.38;;
35364;SDS011;21464;48.112;11.530;2023-06-10T06:47:49;11.93;;;10.73;;
35364;SDS011;21464;48.112;11.530;2023-06-10T06:50:15;10.95;;;9.95;;
35364;SDS011;21464;48.112;11.530;2023-06-10T06:52:42;13.13;;;11.85;;
35364;SDS011;21464;48.112;11.530;2023-06-10T06:55:11;12.02;;;10.98;;
35364;SDS011;21464;48.112;11.530;2023-06-10T06:57:38;12.32;;;11.07;;
35364;SDS011;21464;48.112;11.530;2023-06-10T07:00:04;11.73;;;10.52;;
35364;SDS011;21464;48.112;11.530;2023-06-10T07:02:31;11.45;;;10.40;;
35364;SDS011;21464;48.112;11.530;2023-06-10T07:05:00;12.95;;;11.65;;
35364;SDS011;21464;48.112;11.530;2023-06-10T07:07:31;12.00;;;10.90;;
35364;SDS011;21464;48.112;11.530;2023-06-10T07:10:01;12.35;;;11.15;;
35364;SDS011;21464;48.112;11.530;2023-06-10T07:12:27;11.20;;;10.20;;
35364;SDS011;21464;48.112;11.530;2023-06-10T07:14:53;11.75;;;10.65;;
35364;SDS011;21464;48.112;11.530;2023-06-10T07:17:20;11.18;;;10.18;;
35364;SDS011;21464;48.112;11.530;2023-06-10T07:19:46;14.18;;;12.80;;
35364;SDS011;21464;48.112;11.530;2023-06-10T07:22:13;11.05;;;10.05;;
35364;SDS011;21464;48.112;11.530;2023-06-10T07:24:41;10.13;;;9.15;;
35364;SDS011;21464;48.112;11.530;2023-06-10T07:27:07;10.57;;;9.63;;
35364;SDS011;21464;48.112;11.530;2023-06-10T07:29:34;11.45;;;10.35;;
35364;SDS011;21464;48.112;11.530;2023-06-10T07:32:02;11.07;;;10.05;;
35364;SDS011;21464;48.112;11.530;2023-06-10T07:34:29;10.25;;;9.45;;
35364;SDS011;21464;48.112;11.530;2023-06-10T07:36:55;10.73;;;9.73;;
35364;SDS011;21464;48.112;11.530;2023-06-10T07:39:22;9.98;;;9.05;;
35364;SDS011;21464;48.112;11.530;2023-06-10T07:41:48;9.98;;;8.98;;
35364;SDS011;21464;48.112;11.530;2023-06-10T07:44:15;10.23;;;9.13;;
35364;SDS011;21464;48.112;11.530;2023-06-10T07:46:41;14.48;;;13.00;;
35364;SDS011;21464;48.112;11.530;2023-06-10T07:49:08;12.30;;;11.07;;
35364;SDS011;21464;48.112;11.530;2023-06-10T07:51:34;17.98;;;16.08;;
35364;SDS011;21464;48.112;11.530;2023-06-10T07:54:00;20.52;;;18.17;;
35364;SDS011;21464;48.112;11.530;2023-06-10T07:56:27;10.23;;;9.07;;
35364;SDS011;21464;48.112;11.530;2023-06-10T07:58:53;10.30;;;9.32;;
35364;SDS011;21464;48.112;11.530;2023-06-10T08:01:19;10.18;;;9.23;;
35364;SDS011;21464;48.112;11.530;2023-06-10T08:03:45;10.48;;;9.48;;
35364;SDS011;21464;48.112;11.530;2023-06-10T08:06:11;9.63;;;8.80;;
35364;SDS011;21464;48.112;11.530;2023-06-10T08:08:38;8.95;;;8.25;;
35364;SDS011;21464;48.112;11.530;2023-06-10T08:11:12;9.25;;;8.35;;
35364;SDS011;21464;48.112;11.530;2023-06-10T08:13:39;11.80;;;8.48;;
35364;SDS011;21464;48.112;11.530;2023-06-10T08:16:06;9.00;;;8.30;;
35364;SDS011;21464;48.112;11.530;2023-06-10T08:18:32;9.70;;;8.80;;
35364;SDS011;21464;48.112;11.530;2023-06-10T08:20:58;9.10;;;8.30;;
35364;SDS011;21464;48.112;11.530;2023-06-10T08:23:24;9.45;;;8.55;;
35364;SDS011;21464;48.112;11.530;2023-06-10T08:25:50;8.95;;;8.05;;
35364;SDS011;21464;48.112;11.530;2023-06-10T08:28:17;8.70;;;7.85;;
35364;SDS011;21464;48.112;11.530;2023-06-10T08:30:44;8.52;;;7.72;;
35364;SDS011;21464;48.112;11.530;2023-06-10T08:33:11;8.73;;;8.02;;
35364;SDS011;21464;48.112;11.530;2023-06-10T08:35:37;8.48;;;7.68;;
35364;SDS011;21464;48.112;11.530;2023-06-10T08:38:03;8.27;;;7.35;;
35364;SDS011;21464;48.112;11.530;2023-06-10T08:40:30;8.45;;;7.75;;
35364;SDS011;21464;48.112;11.530;2023-06-10T08:45:36;8.02;;;7.22;;
35364;SDS011;21464;48.112;11.530;2023-06-10T08:48:03;8.95;;;7.25;;
35364;SDS011;21464;48.112;11.530;2023-06-10T08:50:37;9.48;;;8.57;;
35364;SDS011;21464;48.112;11.530;2023-06-10T08:53:04;8.73;;;8.02;;
35364;SDS011;21464;48.112;11.530;2023-06-10T08:55:32;9.05;;;8.15;;
35364;SDS011;21464;48.112;11.530;2023-06-10T08:57:59;8.90;;;8.05;;
35364;SDS011;21464;48.112;11.530;2023-06-10T09:00:26;9.02;;;7.50;;
35364;SDS011;21464;48.112;11.530;2023-06-10T09:02:53;7.40;;;6.80;;
35364;SDS011;21464;48.112;11.530;2023-06-10T09:05:19;7.07;;;6.47;;
35364;SDS011;21464;48.112;11.530;2023-06-10T09:07:46;6.75;;;6.18;;
35364;SDS011;21464;48.112;11.530;2023-06-10T09:10:14;8.50;;;7.72;;
35364;SDS011;21464;48.112;11.530;2023-06-10T09:12:40;8.07;;;7.28;;
35364;SDS011;21464;48.112;11.530;2023-06-10T09:15:07;8.07;;;7.22;;
35364;SDS011;21464;48.112;11.530;2023-06-10T09:17:34;8.65;;;7.88;;
35364;SDS011;21464;48.112;11.530;2023-06-10T09:20:02;7.80;;;7.10;;
35364;SDS011;21464;48.112;11.530;2023-06-10T09:22:30;8.32;;;7.50;;
35364;SDS011;21464;48.112;11.530;2023-06-10T09:27:31;8.30;;;7.60;;
35364;SDS011;21464;48.112;11.530;2023-06-10T09:30:00;9.18;;;8.38;;
35364;SDS011;21464;48.112;11.530;2023-06-10T09:32:26;8.45;;;7.70;;
35364;SDS011;21464;48.112;11.530;2023-06-10T09:34:53;9.23;;;8.32;;
35364;SDS011;21464;48.112;11.530;2023-06-10T09:37:20;8.27;;;7.57;;
35364;SDS011;21464;48.112;11.530;2023-06-10T09:40:08;7.53;;;6.82;;
35364;SDS011;21464;48.112;11.530;2023-06-10T09:42:38;8.52;;;7.60;;
35364;SDS011;21464;48.112;11.530;2023-06-10T09:45:05;8.18;;;7.38;;
35364;SDS011;21464;48.112;11.530;2023-06-10T09:47:32;10.50;;;9.40;;
35364;SDS011;21464;48.112;11.530;2023-06-10T09:49:58;8.95;;;8.15;;
35364;SDS011;21464;48.112;11.530;2023-06-10T09:52:26;8.18;;;7.40;;
35364;SDS011;21464;48.112;11.530;2023-06-10T09:54:54;8.10;;;7.30;;
35364;SDS011;21464;48.112;11.530;2023-06-10T09:57:26;7.70;;;7.00;;
35364;SDS011;21464;48.112;11.530;2023-06-10T09:59:56;9.18;;;8.30;;
35364;SDS011;21464;48.112;11.530;2023-06-10T10:02:22;8.00;;;7.22;;
35364;SDS011;21464;48.112;11.530;2023-06-10T10:04:49;8.85;;;8.05;;
35364;SDS011;21464;48.112;11.530;2023-06-10T10:07:16;5.72;;;5.32;;
35364;SDS011;21464;48.112;11.530;2023-06-10T10:09:42;7.28;;;6.68;;
35364;SDS011;21464;48.112;11.530;2023-06-10T10:12:09;7.10;;;6.53;;
35364;SDS011;21464;48.112;11.530;2023-06-10T10:14:37;5.78;;;5.38;;
35364;SDS011;21464;48.112;11.530;2023-06-10T10:17:06;5.70;;;5.20;;
35364;SDS011;21464;48.112;11.530;2023-06-10T10:19:36;5.88;;;5.38;;
35364;SDS011;21464;48.112;11.530;2023-06-10T10:22:21;5.53;;;5.13;;
35364;SDS011;21464;48.112;11.530;2023-06-10T10:24:59;4.97;;;4.57;;
35364;SDS011;21464;48.112;11.530;2023-06-10T10:27:44;5.18;;;4.78;;
35364;SDS011;21464;48.112;11.530;2023-06-10T10:30:30;5.20;;;4.80;;
35364;SDS011;21464;48.112;11.530;2023-06-10T10:33:04;5.57;;;5.05;;
35364;SDS011;21464;48.112;11.530;2023-06-10T10:35:35;5.95;;;4.85;;
35364;SDS011;21464;48.112;11.530;2023-06-10T10:38:02;4.57;;;4.28;;
35364;SDS011;21464;48.112;11.530;2023-06-10T10:40:29;4.63;;;4.32;;
35364;SDS011;21464;48.112;11.530;2023-06-10T10:42:56;4.47;;;4.18;;
35364;SDS011;21464;48.112;11.530;2023-06-10T10:45:24;4.72;;;4.43;;
35364;SDS011;21464;48.112;11.530;2023-06-10T10:47:53;4.50;;;4.20;;
35364;SDS011;21464;48.112;11.530;2023-06-10T10:50:21;4.25;;;3.92;;
35364;SDS011;21464;48.112;11.530;2023-06-10T10:52:54;7.18;;;6.55;;
35364;SDS011;21464;48.112;11.530;2023-06-10T10:55:22;5.47;;;5.07;;
35364;SDS011;21464;48.112;11.530;2023-06-10T10:58:06;4.90;;;4.50;;
35364;SDS011;21464;48.112;11.530;2023-06-10T11:00:45;4.90;;;4.60;;
35364;SDS011;21464;48.112;11.530;2023-06-10T11:03:13;4.93;;;4.57;;
35364;SDS011;21464;48.112;11.530;2023-06-10T11:05:43;4.88;;;4.47;;
35364;SDS011;21464;48.112;11.530;2023-06-10T11:08:14;4.40;;;4.10;;
35364;SDS011;21464;48.112;11.530;2023-06-10T11:10:42;4.68;;;4.28;;
35364;SDS011;21464;48.112;11.530;2023-06-10T11:13:19;4.03;;;3.72;;
35364;SDS011;21464;48.112;11.530;2023-06-10T11:15:47;4.65;;;4.35;;
35364;SDS011;21464;48.112;11.530;2023-06-10T11:20:45;4.93;;;4.53;;
35364;SDS011;21464;48.112;11.530;2023-06-10T11:33:58;4.88;;;4.47;;
35364;SDS011;21464;48.112;11.530;2023-06-10T11:36:29;4.22;;;3.92;;
35364;SDS011;21464;48.112;11.530;2023-06-10T11:38:56;4.53;;;4.13;;
35364;SDS011;21464;48.112;11.530;2023-06-10T11:41:26;4.15;;;3.85;;
35364;SDS011;21464;48.112;11.530;2023-06-10T11:43:55;3.90;;;3.60;;
35364;SDS011;21464;48.112;11.530;2023-06-10T11:46:23;4.07;;;3.75;;
35364;SDS011;21464;48.112;11.530;2023-06-10T11:48:53;3.47;;;3.28;;
35364;SDS011;21464;48.112;11.530;2023-06-10T11:51:21;4.72;;;4.30;;
35364;SDS011;21464;48.112;11.530;2023-06-10T11:53:48;4.72;;;4.32;;
35364;SDS011;21464;48.112;11.530;2023-06-10T11:56:24;3.83;;;3.53;;
35364;SDS011;21464;48.112;11.530;2023-06-10T11:58:52;3.60;;;3.40;;
35364;SDS011;21464;48.112;11.530;2023-06-10T12:01:20;4.18;;;3.78;;
35364;SDS011;21464;48.112;11.530;2023-06-10T12:03:48;4.03;;;3.70;;
35364;SDS011;21464;48.112;11.530;2023-06-10T12:06:21;4.32;;;4.03;;
35364;SDS011;21464;48.112;11.530;2023-06-10T12:08:48;4.35;;;3.63;;
35364;SDS011;21464;48.112;11.530;2023-06-10T12:11:14;3.60;;;3.40;;
35364;SDS011;21464;48.112;11.530;2023-06-10T12:13:47;4.13;;;3.83;;
35364;SDS011;21464;48.112;11.530;2023-06-10T12:16:14;3.85;;;3.55;;
35364;SDS011;21464;48.112;11.530;2023-06-10T12:18:42;4.15;;;3.85;;
35364;SDS011;21464;48.112;11.530;2023-06-10T12:21:16;4.10;;;3.80;;
35364;SDS011;21464;48.112;11.530;2023-06-10T12:26:34;5.30;;;4.80;;
35364;SDS011;21464;48.112;11.530;2023-06-10T12:29:15;3.63;;;3.30;;
35364;SDS011;21464;48.112;11.530;2023-06-10T12:31:52;3.83;;;3.50;;
35364;SDS011;21464;48.112;11.530;2023-06-10T12:34:29;3.50;;;3.30;;
35364;SDS011;21464;48.112;11.530;2023-06-10T12:36:57;5.63;;;3.70;;
35364;SDS011;21464;48.112;11.530;2023-06-10T12:39:23;3.35;;;3.05;;
35364;SDS011;21464;48.112;11.530;2023-06-10T12:41:50;4.85;;;4.45;;
35364;SDS011;21464;48.112;11.530;2023-06-10T12:44:17;3.50;;;3.20;;
35364;SDS011;21464;48.112;11.530;2023-06-10T12:46:43;3.63;;;3.35;;
35364;SDS011;21464;48.112;11.530;2023-06-10T12:49:19;5.80;;;3.20;;
35364;SDS011;21464;48.112;11.530;2023-06-10T12:51:46;3.22;;;3.03;;
35364;SDS011;21464;48.112;11.530;2023-06-10T12:54:13;3.35;;;3.15;;
35364;SDS011;21464;48.112;11.530;2023-06-10T12:56:39;2.80;;;2.60;;
35364;SDS011;21464;48.112;11.530;2023-06-10T12:59:06;3.08;;;2.92;;
35364;SDS011;21464;48.112;11.530;2023-06-10T13:01:32;4.75;;;4.28;;
35364;SDS011;21464;48.112;11.530;2023-06-10T13:03:59;3.28;;;3.08;;
35364;SDS011;21464;48.112;11.530;2023-06-10T13:06:25;3.40;;;3.10;;
35364;SDS011;21464;48.112;11.530;2023-06-10T13:08:52;3.35;;;3.08;;
35364;SDS011;21464;48.112;11.530;2023-06-10T13:11:19;2.90;;;2.70;;
35364;SDS011;21464;48.112;11.530;2023-06-10T13:13:46;3.20;;;3.00;;
35364;SDS011;21464;48.112;11.530;2023-06-10T13:16:12;4.88;;;4.47;;
35364;SDS011;21464;48.112;11.530;2023-06-10T13:18:39;5.28;;;4.88;;
35364;SDS011;21464;48.112;11.530;2023-06-10T13:21:05;4.18;;;3.78;;
35364;SDS011;21464;48.112;11.530;2023-06-10T13:23:31;4.65;;;4.22;;
35364;SDS011;21464;48.112;11.530;2023-06-10T13:25:57;4.68;;;4.30;;
35364;SDS011;21464;48.112;11.530;2023-06-10T13:28:24;4.88;;;4.50;;
35364;SDS011;21464;48.112;11.530;2023-06-10T13:30:51;5.78;;;5.15;;
35364;SDS011;21464;48.112;11.530;2023-06-10T13:33:17;6.45;;;5.95;;
35364;SDS011;21464;48.112;11.530;2023-06-10T13:35:44;4.88;;;4.45;;
35364;SDS011;21464;48.112;11.530;2023-06-10T13:38:10;4.70;;;4.30;;
35364;SDS011;21464;48.112;11.530;2023-06-10T13:40:36;4.72;;;4.43;;
35364;SDS011;21464;48.112;11.530;2023-06-10T13:43:02;5.95;;;5.55;;
35364;SDS011;21464;48.112;11.530;2023-06-10T13:45:29;4.43;;;4.10;;
35364;SDS011;21464;48.112;11.530;2023-06-10T13:47:55;4.45;;;4.05;;
35364;SDS011;21464;48.112;11.530;2023-06-10T13:50:21;3.80;;;3.60;;
35364;SDS011;21464;48.112;11.530;2023-06-10T13:52:47;3.83;;;3.63;;
35364;SDS011;21464;48.112;11.530;2023-06-10T13:55:14;3.90;;;3.30;;
35364;SDS011;21464;48.112;11.530;2023-06-10T13:57:40;4.07;;;3.78;;
35364;SDS011;21464;48.112;11.530;2023-06-10T14:00:06;3.65;;;3.40;;
35364;SDS011;21464;48.112;11.530;2023-06-10T14:02:33;3.53;;;3.22;;
35364;SDS011;21464;48.112;11.530;2023-06-10T14:04:59;3.55;;;3.25;;
35364;SDS011;21464;48.112;11.530;2023-06-10T14:07:25;3.25;;;3.05;;
35364;SDS011;21464;48.112;11.530;2023-06-10T14:09:52;3.28;;;2.97;;
35364;SDS011;21464;48.112;11.530;2023-06-10T14:12:18;3.60;;;3.40;;
35364;SDS011;21464;48.112;11.530;2023-06-10T14:14:44;4.75;;;4.35;;
35364;SDS011;21464;48.112;11.530;2023-06-10T14:17:11;5.53;;;4.10;;
35364;SDS011;21464;48.112;11.530;2023-06-10T14:19:37;3.83;;;3.63;;
35364;SDS011;21464;48.112;11.530;2023-06-10T14:22:03;2.55;;;2.38;;
35364;SDS011;21464;48.112;11.530;2023-06-10T14:24:29;3.20;;;3.00;;
35364;SDS011;21464;48.112;11.530;2023-06-10T14:26:56;2.33;;;2.22;;
35364;SDS011;21464;48.112;11.530;2023-06-10T14:29:24;3.13;;;3.00;;
35364;SDS011;21464;48.112;11.530;2023-06-10T14:31:52;3.00;;;2.80;;
35364;SDS011;21464;48.112;11.530;2023-06-10T14:34:19;2.63;;;2.53;;
35364;SDS011;21464;48.112;11.530;2023-06-10T14:36:45;3.17;;;2.97;;
35364;SDS011;21464;48.112;11.530;2023-06-10T14:39:12;3.25;;;2.67;;
35364;SDS011;21464;48.112;11.530;2023-06-10T14:41:38;3.20;;;3.10;;
35364;SDS011;21464;48.112;11.530;2023-06-10T14:44:04;3.13;;;2.92;;
35364;SDS011;21464;48.112;11.530;2023-06-10T14:46:30;2.53;;;2.42;;
35364;SDS011;21464;48.112;11.530;2023-06-10T14:48:56;2.97;;;2.80;;
35364;SDS011;21464;48.112;11.530;2023-06-10T14:51:25;2.97;;;2.80;;
35364;SDS011;21464;48.112;11.530;2023-06-10T14:53:51;3.65;;;2.80;;
35364;SDS011;21464;48.112;11.530;2023-06-10T14:56:17;2.90;;;2.70;;
35364;SDS011;21464;48.112;11.530;2023-06-10T14:58:43;3.00;;;2.80;;